Time;durP1;ratioP1;P1;durP2;ratioP2;P2;SDS_P1;SDS_P2;PMS_P1;PMS_P2;Temp;Humidity;BMP_temperature;BMP_pressure;BME280_temperature;BME280_humidity;BME280_pressure;Samples;Min_cycle;Max_cycle;Signal;HPM_P1;HPM_P2
2023/06/14 00:02:55;;;;;;;1.60;1.50;;;;;;;-146.25;100.00;57403.91;5088987;28;20256;-84
2023/06/14 00:06:24;;;;;;;2.88;1.80;;;;;;;-146.25;100.00;57403.91;5089739;28;20206;-84
2023/06/14 00:09:51;;;;;;;2.30;2.20;;;;;;;-146.25;100.00;57403.91;5089261;28;20239;-85
2023/06/14 00:13:17;;;;;;;3.15;2.10;;;;;;;-146.25;100.00;57403.91;5089255;28;20224;-85
2023/06/14 00:16:44;;;;;;;2.20;2.10;;;;;;;-146.25;100.00;57403.91;5088797;28;20253;-85
2023/06/14 00:20:10;;;;;;;1.63;1.52;;;;;;;-146.25;100.00;57403.91;5087291;28;20316;-86
2023/06/14 00:23:36;;;;;;;2.03;1.92;;;;;;;-146.25;100.00;57403.91;5069377;28;20319;-86
2023/06/14 00:27:03;;;;;;;2.60;1.38;;;;;;;-146.25;100.00;57403.91;5069218;28;20206;-85
2023/06/14 00:30:30;;;;;;;1.90;1.80;;;;;;;-146.25;100.00;57403.91;5069054;28;20303;-86
2023/06/14 00:33:56;;;;;;;2.78;2.25;;;;;;;-146.25;100.00;57403.91;5069346;28;20200;-86
2023/06/14 00:37:21;;;;;;;2.00;1.85;;;;;;;-146.25;100.00;57403.91;5069452;28;20308;-86
2023/06/14 00:40:47;;;;;;;2.17;1.67;;;;;;;-146.25;100.00;57403.91;5069253;28;20197;-86
2023/06/14 00:44:17;;;;;;;2.13;1.98;;;;;;;-146.25;100.00;57403.91;5069528;28;20257;-86
2023/06/14 00:47:43;;;;;;;2.20;2.00;;;;;;;-146.25;100.00;57403.91;5069947;28;20206;-86
2023/06/14 00:51:09;;;;;;;1.70;1.60;;;;;;;-146.25;100.00;57403.91;5070366;28;20669;-84
2023/06/14 00:54:34;;;;;;;1.95;1.85;;;;;;;-146.25;100.00;57403.91;5069143;28;20211;-85
2023/06/14 00:58:00;;;;;;;2.35;2.25;;;;;;;-146.25;100.00;57403.91;5068824;28;20204;-86
2023/06/14 01:01:28;;;;;;;1.52;1.42;;;;;;;-146.25;100.00;57403.91;5068322;28;20197;-85
2023/06/14 01:04:55;;;;;;;1.80;1.70;;;;;;;-146.25;100.00;57403.91;5069307;28;20283;-84
2023/06/14 01:08:27;;;;;;;3.95;1.58;;;;;;;-146.25;100.00;57403.91;5069043;28;20225;-86
2023/06/14 01:12:02;;;;;;;1.77;1.70;;;;;;;-146.25;100.00;57403.91;5073016;28;20205;-85
2023/06/14 01:15:31;;;;;;;2.28;1.83;;;;;;;-146.25;100.00;57403.91;5072572;28;20191;-86
2023/06/14 01:18:57;;;;;;;1.73;1.63;;;;;;;-146.25;100.00;57403.91;5073127;28;20201;-85
2023/06/14 01:22:25;;;;;;;2.33;1.73;;;;;;;-146.25;100.00;57403.91;5072554;28;20305;-85
2023/06/14 01:25:53;;;;;;;1.92;1.83;;;;;;;-146.25;100.00;57403.91;5072993;28;20209;-86
2023/06/14 01:29:21;;;;;;;1.55;1.45;;;;;;;-146.25;100.00;57403.91;5072690;28;20201;-84
2023/06/14 01:32:47;;;;;;;1.55;1.52;;;;;;;-146.25;100.00;57403.91;5072511;28;20274;-86
2023/06/14 01:36:13;;;;;;;2.80;1.83;;;;;;;-146.25;100.00;57403.91;5072386;28;20746;-86
2023/06/14 01:39:40;;;;;;;1.95;1.85;;;;;;;-146.25;100.00;57403.91;5072419;28;20205;-84
2023/06/14 01:43:07;;;;;;;2.00;1.90;;;;;;;-146.25;100.00;57403.91;5073610;28;20253;-86
2023/06/14 01:46:33;;;;;;;2.15;1.95;;;;;;;-146.25;100.00;57403.91;5072413;28;20666;-87
2023/06/14 01:50:00;;;;;;;2.53;1.83;;;;;;;-146.25;100.00;57403.91;5075881;28;20232;-85
2023/06/14 01:53:25;;;;;;;2.67;2.00;;;;;;;-146.25;100.00;57403.91;5077681;28;20204;-86
2023/06/14 01:56:51;;;;;;;2.70;2.05;;;;;;;-146.25;100.00;57403.91;5097269;28;20182;-85
2023/06/14 02:00:18;;;;;;;1.63;1.52;;;;;;;-146.25;100.00;57403.91;5090225;28;20209;-84
2023/06/14 02:03:44;;;;;;;1.65;1.55;;;;;;;-146.25;100.00;57403.91;5072822;28;20238;-86
2023/06/14 02:07:10;;;;;;;4.88;1.98;;;;;;;-146.25;100.00;57403.91;5073006;28;20203;-86
2023/06/14 02:10:35;;;;;;;2.40;1.88;;;;;;;-146.25;100.00;57403.91;5072668;28;20212;-84
2023/06/14 02:14:01;;;;;;;1.83;1.73;;;;;;;-146.25;100.00;57403.91;5072966;28;20229;-85
2023/06/14 02:17:28;;;;;;;1.25;1.25;;;;;;;-146.25;100.00;57403.91;5071714;28;20574;-86
2023/06/14 02:20:54;;;;;;;1.60;1.50;;;;;;;-146.25;100.00;57403.91;5071667;28;20240;-86
2023/06/14 02:24:19;;;;;;;1.77;1.50;;;;;;;-146.25;100.00;57403.91;5071663;28;20708;-86
2023/06/14 02:27:45;;;;;;;1.02;1.02;;;;;;;-146.25;100.00;57403.91;5072068;28;20221;-86
2023/06/14 02:31:11;;;;;;;1.58;1.08;;;;;;;-146.25;100.00;57403.91;5071636;28;20205;-85
2023/06/14 02:34:41;;;;;;;4.95;1.80;;;;;;;-146.25;100.00;57403.91;5072091;28;20627;-86
2023/06/14 02:38:06;;;;;;;2.20;2.00;;;;;;;-146.25;100.00;57403.91;5071212;28;20206;-87
2023/06/14 02:41:32;;;;;;;2.08;1.88;;;;;;;-146.25;100.00;57403.91;5071504;28;20210;-86
2023/06/14 02:44:57;;;;;;;1.98;1.85;;;;;;;-146.25;100.00;57403.91;5071257;28;20679;-87
2023/06/14 02:48:23;;;;;;;1.45;1.45;;;;;;;-146.25;100.00;57403.91;5071270;28;20238;-85
2023/06/14 02:51:50;;;;;;;1.42;1.33;;;;;;;-146.25;100.00;57403.91;5071162;28;20216;-85
2023/06/14 02:55:16;;;;;;;1.13;1.13;;;;;;;-146.25;100.00;57403.91;5071425;28;20199;-87
2023/06/14 02:58:42;;;;;;;2.38;1.80;;;;;;;-146.25;100.00;57403.91;5070878;28;20704;-86
2023/06/14 03:02:07;;;;;;;2.17;1.80;;;;;;;-146.25;100.00;57403.91;5070879;28;20242;-85
2023/06/14 03:05:34;;;;;;;1.48;1.20;;;;;;;-146.25;100.00;57403.91;5070404;28;20231;-85
2023/06/14 03:09:04;;;;;;;1.33;1.23;;;;;;;-146.25;100.00;57403.91;5070484;28;20287;-86
2023/06/14 03:12:30;;;;;;;1.30;1.30;;;;;;;-146.25;100.00;57403.91;5070653;28;20232;-86
2023/06/14 03:15:56;;;;;;;1.80;1.48;;;;;;;-146.25;100.00;57403.91;5070887;28;20201;-84
2023/06/14 03:19:22;;;;;;;2.90;1.10;;;;;;;-146.25;100.00;57403.91;5071105;28;20212;-86
2023/06/14 03:22:54;;;;;;;1.48;1.27;;;;;;;-146.25;100.00;57403.91;5070821;28;20213;-86
2023/06/14 03:26:38;;;;;;;1.40;1.30;;;;;;;-146.25;100.00;57403.91;5070858;28;20636;-86
2023/06/14 03:30:04;;;;;;;1.45;1.35;;;;;;;-146.25;100.00;57403.91;5070508;28;20210;-86
2023/06/14 03:33:32;;;;;;;2.40;1.60;;;;;;;-146.25;100.00;57403.91;5069634;28;20200;-85
2023/06/14 03:36:58;;;;;;;1.20;1.20;;;;;;;-146.25;100.00;57403.91;5069931;28;20578;-84
2023/06/14 03:40:27;;;;;;;1.88;1.55;;;;;;;-146.25;100.00;57403.91;5070496;28;20510;-86
2023/06/14 03:44:01;;;;;;;1.45;1.45;;;;;;;-146.25;100.00;57403.91;5069874;28;20283;-85
2023/06/14 03:47:30;;;;;;;1.42;1.33;;;;;;;-146.25;100.00;57403.91;5070655;28;20638;-86
2023/06/14 03:50:56;;;;;;;1.40;1.40;;;;;;;-146.25;100.00;57403.91;5071216;28;20579;-85
2023/06/14 03:54:22;;;;;;;2.55;1.50;;;;;;;-146.25;100.00;57403.91;5069372;28;20215;-85
2023/06/14 03:57:49;;;;;;;4.10;1.65;;;;;;;-146.25;100.00;57403.91;5070200;28;20691;-85
2023/06/14 04:01:15;;;;;;;31.38;13.45;;;;;;;-146.25;100.00;57403.91;5070170;28;20638;-86
2023/06/14 04:04:43;;;;;;;3.90;3.45;;;;;;;-146.25;100.00;57403.91;5070090;28;20538;-85
2023/06/14 04:08:10;;;;;;;1.40;1.30;;;;;;;-146.25;100.00;57403.91;5069666;28;20215;-85
2023/06/14 04:11:35;;;;;;;1.60;1.38;;;;;;;-146.25;100.00;57403.91;5070315;28;20205;-85
2023/06/14 04:15:05;;;;;;;2.20;1.73;;;;;;;-146.25;100.00;57403.91;5069736;28;20288;-85
2023/06/14 04:18:31;;;;;;;2.10;2.00;;;;;;;-146.25;100.00;57403.91;5069954;28;20209;-85
2023/06/14 04:21:56;;;;;;;2.00;1.90;;;;;;;-146.25;100.00;57403.91;5069567;28;20583;-85
2023/06/14 04:25:23;;;;;;;1.88;1.77;;;;;;;-146.25;100.00;57403.91;5069992;28;20223;-85
2023/06/14 04:28:49;;;;;;;2.00;1.90;;;;;;;-146.25;100.00;57403.91;5074582;28;20221;-85
2023/06/14 04:32:18;;;;;;;1.92;1.83;;;;;;;-146.25;100.00;57403.91;5087866;28;20202;-87
2023/06/14 04:35:47;;;;;;;1.83;1.73;;;;;;;-146.25;100.00;57403.91;5079861;28;20229;-85
2023/06/14 04:39:13;;;;;;;1.98;1.88;;;;;;;-146.25;100.00;57403.91;5090695;28;20213;-86
2023/06/14 04:42:40;;;;;;;2.55;2.20;;;;;;;-146.25;100.00;57403.91;5088625;28;20197;-86
2023/06/14 04:46:09;;;;;;;1.98;1.88;;;;;;;-146.25;100.00;57403.91;5093719;28;20775;-86
2023/06/14 04:49:37;;;;;;;2.10;2.00;;;;;;;-146.25;100.00;57403.91;5094182;28;20762;-84
2023/06/14 04:53:03;;;;;;;2.17;2.08;;;;;;;-146.25;100.00;57403.91;5094422;28;20244;-87
2023/06/14 04:56:30;;;;;;;2.20;2.10;;;;;;;-146.25;100.00;57403.91;5091024;28;20248;-86
2023/06/14 04:59:57;;;;;;;2.50;1.88;;;;;;;-146.25;100.00;57403.91;5084480;28;20303;-85
2023/06/14 05:03:21;;;;;;;4.15;2.50;;;;;;;-146.25;100.00;57403.91;5080337;28;20245;-88
2023/06/14 05:06:54;;;;;;;2.65;2.45;;;;;;;-146.25;100.00;57403.91;5088990;28;20504;-85
2023/06/14 05:10:28;;;;;;;4.75;2.60;;;;;;;-146.25;100.00;57403.91;5080622;28;20198;-86
2023/06/14 05:13:55;;;;;;;3.97;2.05;;;;;;;-146.25;100.00;57403.91;5087125;28;20214;-85
2023/06/14 05:17:28;;;;;;;1.75;1.75;;;;;;;-146.25;100.00;57403.91;5096073;28;20254;-85
2023/06/14 05:20:55;;;;;;;2.33;2.15;;;;;;;-146.25;100.00;57403.91;5094774;28;20206;-85
2023/06/14 05:24:23;;;;;;;2.72;2.53;;;;;;;-146.25;100.00;57403.91;5087947;28;20537;-85
2023/06/14 05:27:52;;;;;;;4.95;2.95;;;;;;;-146.25;100.00;57403.91;5095891;28;20673;-86
2023/06/14 05:31:17;;;;;;;2.53;2.33;;;;;;;-146.25;100.00;57403.91;5093298;28;20350;-86
2023/06/14 05:34:45;;;;;;;2.60;2.47;;;;;;;-146.25;100.00;57403.91;5095341;28;20197;-86
2023/06/14 05:38:12;;;;;;;2.78;2.63;;;;;;;-146.25;100.00;57403.91;5089516;28;20197;-86
2023/06/14 05:41:38;;;;;;;3.65;3.10;;;;;;;-146.25;100.00;57403.91;5092109;28;20285;-86
2023/06/14 05:45:09;;;;;;;3.55;3.05;;;;;;;-146.25;100.00;57403.91;5096641;28;20351;-87
2023/06/14 05:48:36;;;;;;;3.28;3.08;;;;;;;-146.25;100.00;57403.91;5081261;28;20244;-86
2023/06/14 05:51:42;;;;;;;2.55;2.35;;;;;;;-146.25;100.00;57403.91;5090901;28;20193;-87
2023/06/14 05:54:41;;;;;;;3.70;2.83;;;;;;;-146.25;100.00;57403.91;5095208;28;20264;-87
2023/06/14 05:58:07;;;;;;;3.97;3.47;;;;;;;-146.25;100.00;57403.91;5072782;28;20187;-86
2023/06/14 06:01:33;;;;;;;3.42;3.17;;;;;;;-146.25;100.00;57403.91;5072890;28;20209;-85
2023/06/14 06:04:01;;;;;;;3.15;2.95;;;;;;;-146.25;100.00;57403.91;5071493;28;20650;-86
2023/06/14 06:06:28;;;;;;;3.33;2.90;;;;;;;-146.25;100.00;57403.91;5071671;28;20247;-85
2023/06/14 06:09:00;;;;;;;3.00;2.63;;;;;;;-146.25;100.00;57403.91;5071608;28;20762;-85
2023/06/14 06:11:31;;;;;;;2.95;2.75;;;;;;;-146.25;100.00;57403.91;5071233;28;20863;-86
2023/06/14 06:14:01;;;;;;;3.15;2.85;;;;;;;-146.25;100.00;57403.91;5075572;28;20222;-86
2023/06/14 06:16:29;;;;;;;4.13;3.13;;;;;;;-146.25;100.00;57403.91;5111167;28;20240;-87
2023/06/14 06:19:08;;;;;;;3.40;3.10;;;;;;;-146.25;100.00;57403.91;5110190;28;20233;-86
2023/06/14 06:21:38;;;;;;;4.68;3.28;;;;;;;-146.25;100.00;57403.91;5110851;28;20233;-86
2023/06/14 06:24:06;;;;;;;2.75;2.55;;;;;;;-146.25;100.00;57403.91;5110961;28;20308;-86
2023/06/14 06:27:35;;;;;;;3.20;2.90;;;;;;;-146.25;100.00;57403.91;5110337;28;20225;-87
2023/06/14 06:31:03;;;;;;;3.55;2.63;;;;;;;-146.25;100.00;57403.91;5088675;28;20233;-86
2023/06/14 06:34:28;;;;;;;3.42;3.05;;;;;;;-146.25;100.00;57403.91;5087195;28;20295;-87
2023/06/14 06:37:59;;;;;;;2.95;2.75;;;;;;;-146.25;100.00;57403.91;5088279;28;20229;-86
2023/06/14 06:41:27;;;;;;;2.45;2.25;;;;;;;-146.25;100.00;57403.91;5087533;28;20606;-86
2023/06/14 06:44:55;;;;;;;2.63;2.42;;;;;;;-146.25;100.00;57403.91;5087880;28;20232;-86
2023/06/14 06:48:20;;;;;;;4.28;3.33;;;;;;;-146.25;100.00;57403.91;5089529;28;20673;-86
2023/06/14 06:52:00;;;;;;;3.40;3.10;;;;;;;-146.25;100.00;57403.91;5089731;28;20214;-86
2023/06/14 06:55:28;;;;;;;4.10;2.88;;;;;;;-146.25;100.00;57403.91;5088723;28;20696;-87
2023/06/14 06:58:54;;;;;;;3.83;3.38;;;;;;;-146.25;100.00;57403.91;5089702;28;20229;-86
2023/06/14 07:01:24;;;;;;;3.55;3.17;;;;;;;-146.25;100.00;57403.91;5089607;28;20300;-86
2023/06/14 07:03:52;;;;;;;4.20;3.40;;;;;;;-146.25;100.00;57403.91;5089208;28;20232;-87
2023/06/14 07:07:18;;;;;;;3.33;3.03;;;;;;;-146.25;100.00;57403.91;5089538;28;20245;-87
2023/06/14 07:09:45;;;;;;;8.57;3.28;;;;;;;-146.25;100.00;57403.91;5088296;28;20217;-88
2023/06/14 07:12:13;;;;;;;3.50;3.17;;;;;;;-146.25;100.00;57403.91;5089034;28;20218;-87
2023/06/14 07:15:41;;;;;;;3.70;3.40;;;;;;;-146.25;100.00;57403.91;5088830;28;20226;-88
2023/06/14 07:19:10;;;;;;;3.70;2.70;;;;;;;-146.25;100.00;57403.91;5089448;28;20229;-87
2023/06/14 07:22:36;;;;;;;4.55;3.33;;;;;;;-146.25;100.00;57403.91;5088185;28;20243;-86
2023/06/14 07:26:03;;;;;;;3.65;3.35;;;;;;;-146.25;100.00;57403.91;5089696;28;20217;-85
2023/06/14 07:29:29;;;;;;;5.72;2.78;;;;;;;-146.25;100.00;57403.91;5100210;28;20283;-86
2023/06/14 07:32:55;;;;;;;4.68;3.30;;;;;;;-146.25;100.00;57403.91;5109438;28;20217;-86
2023/06/14 07:36:26;;;;;;;3.88;3.58;;;;;;;-146.25;100.00;57403.91;5108941;28;20229;-86
2023/06/14 07:39:51;;;;;;;4.75;3.72;;;;;;;-146.25;100.00;57403.91;5109206;28;20228;-86
2023/06/14 07:43:21;;;;;;;4.60;4.00;;;;;;;-146.25;100.00;57403.91;5108934;28;20213;-86
2023/06/14 07:46:49;;;;;;;5.88;4.03;;;;;;;-146.25;100.00;57403.91;5108053;28;20237;-86
2023/06/14 07:50:15;;;;;;;4.90;3.72;;;;;;;-146.25;100.00;57403.91;5108540;28;20701;-86
2023/06/14 07:53:46;;;;;;;4.40;2.67;;;;;;;-146.25;100.00;57403.91;5108263;28;20225;-86
2023/06/14 07:57:15;;;;;;;4.10;3.70;;;;;;;-146.25;100.00;57403.91;5108140;28;20224;-86
2023/06/14 08:00:43;;;;;;;3.65;3.35;;;;;;;-146.25;100.00;57403.91;5088649;28;20312;-85
2023/06/14 08:04:08;;;;;;;5.95;4.25;;;;;;;-146.25;100.00;57403.91;5088296;28;20244;-86
2023/06/14 08:07:34;;;;;;;4.25;3.80;;;;;;;-146.25;100.00;57403.91;5087505;28;20698;-85
2023/06/14 08:11:02;;;;;;;7.15;3.00;;;;;;;-146.25;100.00;57403.91;5087553;28;20230;-86
2023/06/14 08:14:29;;;;;;;2.72;2.53;;;;;;;-146.25;100.00;57403.91;5088283;28;20674;-86
2023/06/14 08:17:56;;;;;;;2.75;2.55;;;;;;;-146.25;100.00;57403.91;5087815;28;20253;-86
2023/06/14 08:21:29;;;;;;;2.95;2.75;;;;;;;-146.25;100.00;57403.91;5087876;28;20245;-84
2023/06/14 08:24:54;;;;;;;3.42;3.17;;;;;;;-146.25;100.00;57403.91;5087904;28;20221;-84
2023/06/14 08:28:22;;;;;;;3.70;3.30;;;;;;;-146.25;100.00;57403.91;5090675;28;20242;-85
2023/06/14 08:31:48;;;;;;;3.90;3.47;;;;;;;-146.25;100.00;57403.91;5094416;28;20218;-85
2023/06/14 08:35:18;;;;;;;3.25;3.05;;;;;;;-146.25;100.00;57403.91;5090235;28;20273;-84
2023/06/14 08:38:44;;;;;;;3.67;3.38;;;;;;;-146.25;100.00;57403.91;5090363;28;20714;-86
2023/06/14 08:42:11;;;;;;;12.93;3.80;;;;;;;-146.25;100.00;57403.91;5102162;28;20221;-85
2023/06/14 08:45:39;;;;;;;4.03;3.20;;;;;;;-146.25;100.00;57403.91;5109425;28;20650;-84
2023/06/14 08:49:07;;;;;;;3.72;3.33;;;;;;;-146.25;100.00;57403.91;5099620;28;20282;-85
2023/06/14 08:52:40;;;;;;;3.55;3.35;;;;;;;-146.25;100.00;57403.91;5117943;28;20228;-88
2023/06/14 08:56:07;;;;;;;4.00;3.65;;;;;;;-146.25;100.00;57403.91;5111305;28;20247;-86
2023/06/14 08:59:39;;;;;;;3.70;3.33;;;;;;;-146.25;100.00;57403.91;5113541;28;20248;-86
2023/06/14 09:03:13;;;;;;;4.78;3.65;;;;;;;-146.25;100.00;57403.91;5111846;28;20329;-86
2023/06/14 09:06:38;;;;;;;7.88;3.42;;;;;;;-146.25;100.00;57403.91;5115225;28;20225;-87
2023/06/14 09:10:08;;;;;;;3.28;3.05;;;;;;;-146.25;100.00;57403.91;5111425;28;20270;-87
2023/06/14 09:13:34;;;;;;;8.95;3.20;;;;;;;-146.25;100.00;57403.91;5109994;28;20595;-86
2023/06/14 09:17:00;;;;;;;3.38;3.13;;;;;;;-146.25;100.00;57403.91;5111827;28;20217;-86
2023/06/14 09:20:33;;;;;;;5.15;4.22;;;;;;;-146.25;100.00;57403.91;5110350;28;20616;-85
2023/06/14 09:24:00;;;;;;;5.60;3.70;;;;;;;-146.25;100.00;57403.91;5112075;28;20221;-87
2023/06/14 09:27:26;;;;;;;6.70;3.63;;;;;;;-146.25;100.00;57403.91;5103963;28;20244;-87
2023/06/14 09:30:52;;;;;;;5.80;4.80;;;;;;;-146.25;100.00;57403.91;5089460;28;20432;-86
2023/06/14 09:34:23;;;;;;;4.72;4.30;;;;;;;-146.25;100.00;57403.91;5092693;28;20534;-88
2023/06/14 09:37:54;;;;;;;5.70;4.32;;;;;;;-146.25;100.00;57403.91;5107706;28;20245;-86
2023/06/14 09:41:21;;;;;;;4.32;3.92;;;;;;;-146.25;100.00;57403.91;5107687;28;20312;-86
2023/06/14 09:44:48;;;;;;;4.03;3.72;;;;;;;-146.25;100.00;57403.91;5094957;28;20241;-85
2023/06/14 09:48:17;;;;;;;4.25;3.85;;;;;;;-146.25;100.00;57403.91;5095656;28;20720;-86
2023/06/14 09:51:47;;;;;;;3.90;3.58;;;;;;;-146.25;100.00;57403.91;5094734;28;20525;-86
2023/06/14 09:55:18;;;;;;;4.80;4.13;;;;;;;-146.25;100.00;57403.91;5094923;28;20225;-87
2023/06/14 09:58:47;;;;;;;4.38;3.97;;;;;;;-146.25;100.00;57403.91;5093538;28;20255;-86
2023/06/14 10:02:20;;;;;;;7.43;4.32;;;;;;;-146.25;100.00;57403.91;5093037;28;20233;-85
2023/06/14 10:05:51;;;;;;;4.95;4.55;;;;;;;-146.25;100.00;57403.91;5097926;28;20226;-87
2023/06/14 10:09:31;;;;;;;4.35;3.95;;;;;;;-146.25;100.00;57403.91;5106348;28;20573;-84
2023/06/14 10:12:57;;;;;;;6.20;4.53;;;;;;;-146.25;100.00;57403.91;5113128;28;20213;-87
2023/06/14 10:16:32;;;;;;;5.03;4.57;;;;;;;-146.25;100.00;57403.91;5093986;28;20204;-88
2023/06/14 10:20:15;;;;;;;5.07;3.78;;;;;;;-146.25;100.00;57403.91;5093619;28;20447;-86
2023/06/14 10:23:51;;;;;;;4.85;4.32;;;;;;;-146.25;100.00;57403.91;5093227;28;20199;-86
2023/06/14 10:27:24;;;;;;;6.10;4.32;;;;;;;-146.25;100.00;57403.91;5095047;28;20210;-87
2023/06/14 10:31:03;;;;;;;7.72;4.07;;;;;;;-146.25;100.00;57403.91;5096407;28;20214;-87
2023/06/14 10:34:33;;;;;;;4.60;3.85;;;;;;;-146.25;100.00;57403.91;5096071;28;20198;-86
2023/06/14 10:38:08;;;;;;;6.07;4.45;;;;;;;-146.25;100.00;57403.91;5096583;28;20214;-86
2023/06/14 10:41:37;;;;;;;4.25;3.85;;;;;;;-146.25;100.00;57403.91;5091534;28;20194;-86
2023/06/14 10:45:21;;;;;;;4.53;3.58;;;;;;;-146.25;100.00;57403.91;5111076;28;20224;-87
2023/06/14 10:48:58;;;;;;;4.80;3.30;;;;;;;-146.25;100.00;57403.91;5095238;28;20240;-86
2023/06/14 10:52:29;;;;;;;4.28;3.60;;;;;;;-146.25;100.00;57403.91;5092638;28;20642;-86
2023/06/14 10:56:08;;;;;;;5.75;3.60;;;;;;;-146.25;100.00;57403.91;5091880;28;20205;-87
2023/06/14 10:59:35;;;;;;;9.50;4.25;;;;;;;-146.25;100.00;57403.91;5092439;28;20512;-87
2023/06/14 11:03:31;;;;;;;3.28;3.03;;;;;;;-146.25;100.00;57403.91;5091391;28;20317;-87
2023/06/14 11:07:11;;;;;;;5.30;3.30;;;;;;;-146.25;100.00;57403.91;5092072;28;20259;-85
2023/06/14 11:10:50;;;;;;;4.05;3.53;;;;;;;-146.25;100.00;57403.91;5091836;28;20661;-87
2023/06/14 11:14:18;;;;;;;5.53;3.13;;;;;;;-146.25;100.00;57403.91;5092440;28;20209;-86
2023/06/14 11:17:53;;;;;;;4.00;3.28;;;;;;;-146.25;100.00;57403.91;5089900;28;20665;-87
2023/06/14 11:21:19;;;;;;;3.85;3.42;;;;;;;-146.25;100.00;57403.91;5089923;28;20198;-86
2023/06/14 11:24:53;;;;;;;6.20;4.30;;;;;;;-146.25;100.00;57403.91;5089813;28;20580;-86
2023/06/14 11:28:21;;;;;;;3.88;3.58;;;;;;;-146.25;100.00;57403.91;5092808;28;20583;-85
2023/06/14 11:31:48;;;;;;;5.95;3.97;;;;;;;-146.25;100.00;57403.91;5089648;28;20202;-85
2023/06/14 11:35:14;;;;;;;3.90;3.60;;;;;;;-146.25;100.00;57403.91;5090334;28;20194;-86
2023/06/14 11:38:41;;;;;;;4.28;3.90;;;;;;;-146.25;100.00;57403.91;5090166;28;20206;-84
2023/06/14 11:42:07;;;;;;;7.50;4.30;;;;;;;-146.25;100.00;57403.91;5099286;28;20198;-86
2023/06/14 11:45:32;;;;;;;4.20;3.80;;;;;;;-146.25;100.00;57403.91;5089294;28;20204;-86
2023/06/14 11:49:02;;;;;;;3.97;3.58;;;;;;;-146.25;100.00;57403.91;5089835;28;20238;-87
2023/06/14 11:52:28;;;;;;;8.38;4.30;;;;;;;-146.25;100.00;57403.91;5089553;28;20684;-86
2023/06/14 11:55:54;;;;;;;4.25;3.53;;;;;;;-146.25;100.00;57403.91;5089727;28;20251;-87
2023/06/14 11:59:22;;;;;;;4.05;3.25;;;;;;;-146.25;100.00;57403.91;5089840;28;20197;-87
2023/06/14 12:02:55;;;;;;;3.13;2.92;;;;;;;-146.25;100.00;57403.91;5097388;28;20241;-86
2023/06/14 12:06:32;;;;;;;2.95;2.75;;;;;;;-146.25;100.00;57403.91;5096153;28;20270;-87
2023/06/14 12:10:08;;;;;;;4.40;3.63;;;;;;;-146.25;100.00;57403.91;5100372;28;20221;-87
2023/06/14 12:13:37;;;;;;;6.15;3.40;;;;;;;-146.25;100.00;57403.91;5097019;28;20221;-85
2023/06/14 12:17:08;;;;;;;5.30;3.00;;;;;;;-146.25;100.00;57403.91;5094515;28;20205;-86
2023/06/14 12:20:42;;;;;;;3.20;3.00;;;;;;;-146.25;100.00;57403.91;5095938;28;20204;-85
2023/06/14 12:24:08;;;;;;;3.47;3.00;;;;;;;-146.25;100.00;57403.91;5094038;28;20689;-87
2023/06/14 12:27:41;;;;;;;3.03;2.80;;;;;;;-146.25;100.00;57403.91;5095614;28;20193;-85
2023/06/14 12:31:07;;;;;;;4.07;3.45;;;;;;;-146.25;100.00;57403.91;5096790;28;20233;-86
2023/06/14 12:34:33;;;;;;;3.20;2.85;;;;;;;-146.25;100.00;57403.91;5093997;28;20638;-85
2023/06/14 12:38:03;;;;;;;6.05;2.97;;;;;;;-146.25;100.00;57403.91;5094284;28;20671;-86
2023/06/14 12:41:29;;;;;;;2.80;2.60;;;;;;;-146.25;100.00;57403.91;5098051;28;20209;-85
2023/06/14 12:44:57;;;;;;;2.78;2.58;;;;;;;-146.25;100.00;57403.91;5096572;28;20218;-85
2023/06/14 12:48:23;;;;;;;3.45;2.53;;;;;;;-146.25;100.00;57403.91;5096163;28;20280;-86
2023/06/14 12:51:49;;;;;;;2.88;2.67;;;;;;;-146.25;100.00;57403.91;5094454;28;20297;-86
2023/06/14 12:55:20;;;;;;;3.38;3.17;;;;;;;-146.25;100.00;57403.91;5091939;28;20867;-86
2023/06/14 12:58:46;;;;;;;3.63;2.75;;;;;;;-146.25;100.00;57403.91;5095079;28;20260;-87
2023/06/14 13:02:13;;;;;;;3.67;3.38;;;;;;;-146.25;100.00;57403.91;5093413;28;20519;-85
2023/06/14 13:05:41;;;;;;;2.70;2.53;;;;;;;-146.25;100.00;57403.91;5098269;28;20677;-86
2023/06/14 13:09:07;;;;;;;4.43;2.50;;;;;;;-146.25;100.00;57403.91;5099051;28;20198;-86
2023/06/14 13:12:34;;;;;;;3.42;2.90;;;;;;;-146.25;100.00;57403.91;5095924;28;20440;-85
2023/06/14 13:16:01;;;;;;;3.20;2.90;;;;;;;-146.25;100.00;57403.91;5094844;28;20561;-86
2023/06/14 13:19:27;;;;;;;2.40;2.30;;;;;;;-146.25;100.00;57403.91;5097548;28;20208;-87
2023/06/14 13:22:54;;;;;;;3.85;2.40;;;;;;;-146.25;100.00;57403.91;5096312;28;20197;-86
2023/06/14 13:26:20;;;;;;;2.30;2.20;;;;;;;-146.25;100.00;57403.91;5100889;28;20206;-86
2023/06/14 13:29:47;;;;;;;4.30;2.38;;;;;;;-146.25;100.00;57403.91;5094838;28;20229;-85
2023/06/14 13:33:14;;;;;;;2.40;2.20;;;;;;;-146.25;100.00;57403.91;5106602;28;20253;-85
2023/06/14 13:36:40;;;;;;;2.00;1.90;;;;;;;-146.25;100.00;57403.91;5112129;28;20202;-83
2023/06/14 13:40:06;;;;;;;2.33;2.22;;;;;;;-146.25;100.00;57403.91;5115645;28;20219;-82
2023/06/14 13:43:31;;;;;;;3.13;1.77;;;;;;;-146.25;100.00;57403.91;5115602;28;20194;-81
2023/06/14 13:46:58;;;;;;;2.72;2.40;;;;;;;-146.25;100.00;57403.91;5121169;28;20536;-80
2023/06/14 13:50:12;;;;;;;2.10;1.98;;;;;;;-146.25;100.00;57403.91;5117257;28;20221;-84
2023/06/14 13:53:38;;;;;;;2.28;2.10;;;;;;;-146.25;100.00;57403.91;5114837;28;20205;-84
2023/06/14 13:57:04;;;;;;;2.30;2.10;;;;;;;-146.25;100.00;57403.91;5113894;28;20197;-83
2023/06/14 14:00:30;;;;;;;2.15;2.05;;;;;;;-146.25;100.00;57403.91;5115157;28;20227;-85
2023/06/14 14:04:02;;;;;;;3.70;2.80;;;;;;;-146.25;100.00;57403.91;5111576;28;20236;-83
2023/06/14 14:07:28;;;;;;;3.05;2.60;;;;;;;-146.25;100.00;57403.91;5113306;28;20225;-85
2023/06/14 14:10:54;;;;;;;3.55;2.50;;;;;;;-146.25;100.00;57403.91;5112989;28;20229;-83
2023/06/14 14:14:20;;;;;;;2.63;2.42;;;;;;;-146.25;100.00;57403.91;5112475;28;20225;-84
2023/06/14 14:17:47;;;;;;;2.70;1.88;;;;;;;-146.25;100.00;57403.91;5125513;28;20217;-84
2023/06/14 14:21:15;;;;;;;2.97;2.78;;;;;;;-146.25;100.00;57403.91;5114076;28;20206;-84
2023/06/14 14:24:41;;;;;;;4.78;2.95;;;;;;;-146.25;100.00;57403.91;5112682;28;20231;-84
2023/06/14 14:28:07;;;;;;;2.40;2.30;;;;;;;-146.25;100.00;57403.91;5110588;28;20226;-85
2023/06/14 14:31:35;;;;;;;2.53;2.42;;;;;;;-146.25;100.00;57403.91;5109551;28;20241;-84
2023/06/14 14:35:00;;;;;;;1.85;1.75;;;;;;;-146.25;100.00;57403.91;5108605;28;20393;-84
2023/06/14 14:38:31;;;;;;;2.35;2.25;;;;;;;-146.25;100.00;57403.91;5094980;28;20226;-86
2023/06/14 14:41:57;;;;;;;3.40;2.00;;;;;;;-146.25;100.00;57403.91;5109734;28;20690;-84
2023/06/14 14:45:22;;;;;;;1.65;1.55;;;;;;;-146.25;100.00;57403.91;5112411;28;20232;-84
2023/06/14 14:48:47;;;;;;;1.70;1.50;;;;;;;-146.25;100.00;57403.91;5114446;28;20229;-84
2023/06/14 14:52:13;;;;;;;2.13;2.00;;;;;;;-146.25;100.00;57403.91;5112813;28;20233;-84
2023/06/14 14:55:39;;;;;;;2.35;2.25;;;;;;;-146.25;100.00;57403.91;5112957;28;20521;-84
2023/06/14 14:59:06;;;;;;;2.97;2.78;;;;;;;-146.25;100.00;57403.91;5115411;28;20450;-84
2023/06/14 15:02:31;;;;;;;2.47;2.28;;;;;;;-146.25;100.00;57403.91;5116860;28;20241;-86
2023/06/14 15:05:59;;;;;;;2.03;1.92;;;;;;;-146.25;100.00;57403.91;5114914;28;20217;-84
2023/06/14 15:09:25;;;;;;;2.65;2.45;;;;;;;-146.25;100.00;57403.91;5119393;28;20232;-84
2023/06/14 15:12:52;;;;;;;3.00;2.80;;;;;;;-146.25;100.00;57403.91;5110734;28;20249;-84
2023/06/14 15:16:24;;;;;;;3.58;3.28;;;;;;;-146.25;100.00;57403.91;5113687;28;20240;-83
2023/06/14 15:19:49;;;;;;;3.55;2.75;;;;;;;-146.25;100.00;57403.91;5114308;28;20234;-83
2023/06/14 15:23:19;;;;;;;3.45;3.15;;;;;;;-146.25;100.00;57403.91;5116445;28;20231;-84
2023/06/14 15:26:46;;;;;;;4.65;3.03;;;;;;;-146.25;100.00;57403.91;5113113;28;20285;-84
2023/06/14 15:30:14;;;;;;;4.15;3.08;;;;;;;-146.25;100.00;57403.91;5115814;28;20577;-85
2023/06/14 15:33:40;;;;;;;7.50;3.30;;;;;;;-146.25;100.00;57403.91;5110742;28;20217;-84